createdAt,value
2018-11-14T00:02:38.870Z,54.2
2018-11-14T00:12:42.449Z,54.2
2018-11-14T00:22:46.125Z,54.2
2018-11-14T00:32:49.710Z,54.1
2018-11-14T00:42:53.353Z,54
2018-11-14T00:52:57.030Z,54.1
2018-11-14T01:03:00.540Z,54
2018-11-14T01:13:04.321Z,53.9
2018-11-14T01:23:08.041Z,53.9
2018-11-14T01:33:12.644Z,53.9
2018-11-14T01:43:16.284Z,53.9
2018-11-14T01:53:19.864Z,53.9
2018-11-14T02:03:23.424Z,53.8
2018-11-14T02:13:27.052Z,53.8
2018-11-14T02:23:30.767Z,53.7
2018-11-14T02:33:34.316Z,53.7
2018-11-14T02:43:37.862Z,53.8
2018-11-14T02:53:41.554Z,53.7
2018-11-14T03:03:45.072Z,53.6
2018-11-14T03:13:48.660Z,53.6
2018-11-14T03:23:52.363Z,53.6
2018-11-14T03:33:55.949Z,53.5
2018-11-14T03:43:59.572Z,53.5
2018-11-14T03:54:03.201Z,53.5
2018-11-14T04:04:06.873Z,53.5
2018-11-14T04:14:10.471Z,53.5
2018-11-14T04:24:14.115Z,53.5
2018-11-14T04:34:17.718Z,53.4
2018-11-14T04:44:21.289Z,53.4
2018-11-14T04:54:24.972Z,53.4
2018-11-14T05:04:28.641Z,53.3
2018-11-14T05:14:32.321Z,53.3
2018-11-14T05:24:36.142Z,53.3
2018-11-14T05:34:40.177Z,53.3
2018-11-14T05:44:43.880Z,53.3
2018-11-14T05:54:47.703Z,53.2
2018-11-14T06:04:51.491Z,53.2
2018-11-14T06:14:55.122Z,53.2
2018-11-14T06:24:58.814Z,53.1
2018-11-14T06:35:02.446Z,53.2
2018-11-14T06:45:06.104Z,53.1
2018-11-14T06:55:09.678Z,53.6
2018-11-14T07:05:13.593Z,55.5
2018-11-14T07:15:17.787Z,54.7
2018-11-14T07:25:21.365Z,54.7
2018-11-14T07:35:24.987Z,54.7
2018-11-14T07:45:28.590Z,54.4
2018-11-14T07:55:32.143Z,54.2
2018-11-14T08:05:35.765Z,53.7
2018-11-14T08:15:39.363Z,54.1
2018-11-14T08:25:42.968Z,54
2018-11-14T08:35:46.590Z,54.1
2018-11-14T08:45:50.284Z,54.4
2018-11-14T08:55:53.830Z,54.8
2018-11-14T09:05:57.505Z,55.2
2018-11-14T09:16:01.109Z,55.1
2018-11-14T09:26:04.807Z,55
2018-11-14T09:36:08.390Z,55.1
2018-11-14T09:46:11.962Z,55
2018-11-14T09:56:15.664Z,54.9
2018-11-14T10:06:19.353Z,55.2
2018-11-14T10:16:22.932Z,55.4
2018-11-14T10:26:26.557Z,55.6
2018-11-14T10:36:30.178Z,57
2018-11-14T10:46:33.798Z,57.7
2018-11-14T10:56:37.469Z,56.6
2018-11-14T11:06:41.034Z,56.9
2018-11-14T11:16:44.572Z,56.3
2018-11-14T11:26:48.309Z,56.1
2018-11-14T11:36:51.948Z,56
2018-11-14T11:46:55.584Z,55.7
2018-11-14T11:56:59.195Z,55.4
2018-11-14T12:07:02.815Z,55.3
2018-11-14T12:17:06.398Z,53.6
2018-11-14T12:27:10.090Z,57.1
2018-11-14T12:37:14.047Z,56.4
2018-11-14T12:47:17.635Z,56.4
2018-11-14T12:57:21.223Z,56.9
2018-11-14T13:07:24.836Z,57.3
2018-11-14T13:17:28.440Z,57.6
2018-11-14T13:27:32.098Z,57.3
2018-11-14T13:37:35.690Z,56.9
2018-11-14T13:47:39.310Z,56.6
2018-11-14T13:57:43.119Z,56.9
2018-11-14T14:07:46.744Z,57
2018-11-14T14:17:50.365Z,57.2
2018-11-14T14:27:53.984Z,56.7
2018-11-14T14:37:57.676Z,56
2018-11-14T14:48:01.472Z,55.6
2018-11-14T14:58:05.120Z,55.1
2018-11-14T15:08:08.656Z,55.5
2018-11-14T15:18:12.533Z,55.6
2018-11-14T15:28:16.228Z,55.7
2018-11-14T15:38:19.960Z,55.4
2018-11-14T15:48:23.521Z,55.4
2018-11-14T15:58:27.082Z,55.3
2018-11-14T16:08:30.676Z,55.1
2018-11-14T16:18:34.266Z,55.6
2018-11-14T16:28:38.602Z,55.3
2018-11-14T16:38:43.079Z,55.1
2018-11-14T16:48:46.682Z,55.6
2018-11-14T16:58:50.325Z,54.9
2018-11-14T17:08:53.908Z,54.6
2018-11-14T17:18:57.498Z,54.4
2018-11-14T17:29:01.101Z,54.3
2018-11-14T17:39:04.669Z,53.8
2018-11-14T17:49:08.472Z,53.3
2018-11-14T17:59:12.165Z,52.9
2018-11-14T18:09:15.706Z,53.2
2018-11-14T18:19:19.470Z,53.3
2018-11-14T18:29:23.123Z,53.3
2018-11-14T18:39:26.876Z,53.3
2018-11-14T18:49:30.777Z,53.3
2018-11-14T18:59:34.377Z,53.4
2018-11-14T19:09:37.976Z,53.3
2018-11-14T19:19:41.577Z,53.3
2018-11-14T19:29:45.305Z,53.3
2018-11-14T19:39:48.976Z,53.2
2018-11-14T19:49:52.618Z,53.3
2018-11-14T19:59:56.274Z,53.2
2018-11-14T20:09:59.864Z,53.2
2018-11-14T20:20:03.468Z,53.1
2018-11-14T20:30:07.132Z,53.2
2018-11-14T20:40:10.859Z,53.2
2018-11-14T20:50:14.560Z,53.1
2018-11-14T21:00:18.171Z,53.1
2018-11-14T21:10:21.734Z,53.2
2018-11-14T21:20:25.380Z,53.1
2018-11-14T21:30:29.099Z,53.1
2018-11-14T21:40:32.702Z,53
2018-11-14T21:50:36.377Z,53
2018-11-14T22:00:40.058Z,53
2018-11-14T22:10:43.724Z,52.9
2018-11-14T22:20:47.236Z,53
2018-11-14T22:30:50.846Z,52.9
2018-11-14T22:40:54.540Z,52.9
2018-11-14T22:50:58.197Z,52.9
2018-11-14T23:01:01.845Z,52.8
2018-11-14T23:11:05.509Z,52.8
2018-11-14T23:21:09.075Z,52.8
2018-11-14T23:31:12.782Z,52.7
2018-11-14T23:41:16.438Z,52.7
2018-11-14T23:51:20.010Z,52.6
